Aneth, Utah
Current Conditions -  °F | °C
As of 12:55 PM on Thursday 30 Oct 2014 (Local Time) from KBDG Reporting Station
Clear Clear  
Wind Chill: 64°   Ceiling: Unl
Heat Index: 64°   Visibility: 10mi
Dew Point: 19°   Wind: 7mph
Humidity: 18%   Direction: 220°SW
Pressure: 30.4"   Gusts: NA
Location:  37.22°N, 109.19°W
Report Text: KBDG 301855Z AUTO 22006KT 10SM CLR 18/M07 A3040 RMK AO1 T01751075
Loading
Personal Weather Stations






























Interactive Weather Map
Tropical Storm Tracking
New forecast layout! Learn more

10-Day Weather Forecast

Advertisements
Track Severe Weather on mobile